AustraliaFixed distance
Ultra-Trail Australia 50 km
15 May2021
Distance
50km
Finishers
1,8301,008 men822 women
Winning time
4:35:44h
Median pace
5.94km/h
Pace distribution
1,830 finishers · 3.46–10.88 km/h · mean 6.03
Every finisher ran the same 50 km course, so these paces are directly comparable.
Histogram of finisher pace. 1,830 finishers ranged from 3.46 to 10.88 kilometres per hour, with a mean of 6.03 and a median of 5.94. The busiest band is 5.5 to 6.0 kilometres per hour, with 305 finishers.
Results
Ranks 801–850 of 1,830
| Rank | Runner | Time | Pace | Cat. | Placing |
|---|---|---|---|---|---|
| 801 | 8:07:22h | 6.16 | — | 556th M | |
| 802 | 8:07:35h | 6.15 | M40 | 557th M · 88th M40 | |
| 803 | UP Coaching | 8:07:57h | 6.15 | W40 | 246th F · 50th W40 |
| 804 | Vipers Run Club | 8:08:08h | 6.15 | — | 558th M |
| 805 | 8:08:27h | 6.14 | M40 | 559th M · 89th M40 | |
| 806 | Watagan Warriors | 8:08:28h | 6.14 | W40 | 247th F · 51st W40 |
| 807 | Savvy | 8:08:50h | 6.14 | M65 | 560th M · 1st M65 |
| 808 | 8:08:55h | 6.14 | W35 | 248th F · 37th W35 | |
| 809 | UP Coaching | 8:08:57h | 6.14 | — | 561st M |
| 810 | 8:09:04h | 6.13 | W50 | 249th F · 17th W50 | |
| 811 | Beauty of Exercise (Bexi) | 8:09:16h | 6.13 | — | 250th F |
| 812 | Brisbane Trail Runners | 8:09:24h | 6.13 | W35 | 251st F · 38th W35 |
| 813 | 8:09:31h | 6.13 | W23 | 252nd F · 42nd W23 | |
| 814 | Squadrun | 8:09:32h | 6.13 | M40 | 562nd M · 90th M40 |
| 815 | Berowra Bush Runners | 8:09:33h | 6.13 | W55 | 253rd F · 3rd W55 |
| 816 | TRT Running | 8:09:41h | 6.13 | — | 254th F |
| 817 | Elevate Running and Fi... | 8:09:50h | 6.13 | — | 255th F |
| 818 | Karimbah Trail Runners | 8:09:52h | 6.12 | M50 | 563rd M · 43rd M50 |
| 819 | Buttrunner | 8:09:56h | 6.12 | M50 | 564th M · 44th M50 |
| 820 | 8:10:04h | 6.12 | M35 | 565th M · 67th M35 | |
| 821 | 8:10:13h | 6.12 | WU23 | 256th F · 6th WU23 | |
| 822 | Rachel’S Runners | 8:10:15h | 6.12 | W35 | 257th F · 39th W35 |
| 823 | UP Coaching - Blue Mou... | 8:10:37h | 6.12 | W45 | 258th F · 30th W45 |
| 823 | RED Lightning Racing Team | 8:10:37h | 6.12 | — | 566th M |
| 825 | Melbourne Inner North ... | 8:11:00h | 6.11 | W45 | 259th F · 31st W45 |
| 826 | RMA | 8:11:13h | 6.11 | — | 260th F |
| 827 | Running Mums Australia | 8:11:14h | 6.11 | W40 | 261st F · 52nd W40 |
| 828 | Squadrun | 8:11:21h | 6.11 | W23 | 262nd F · 43rd W23 |
| 829 | Five30Runners | 8:11:29h | 6.10 | M45 | 567th M · 74th M45 |
| 830 | St George | 8:11:42h | 6.10 | M60 | 568th M · 9th M60 |
| 831 | 8:11:47h | 6.10 | M45 | 569th M · 75th M45 | |
| 832 | 8:11:54h | 6.10 | — | 263rd F | |
| 832 | 8:11:54h | 6.10 | M45 | 570th M · 76th M45 | |
| 834 | 8:11:55h | 6.10 | W23 | 264th F · 44th W23 | |
| 835 | Running Mums Australia | 8:11:58h | 6.10 | — | 265th F |
| 836 | Terrigal Trotters | 8:12:06h | 6.10 | — | 266th F |
| 837 | UP Coaching | 8:12:21h | 6.09 | M50 | 571st M · 45th M50 |
| 837 | UP Coaching | 8:12:21h | 6.09 | M45 | 571st M · 77th M45 |
| 839 | 8:12:32h | 6.09 | W35 | 267th F · 40th W35 | |
| 839 | Cadence Run Group | 8:12:32h | 6.09 | M50 | 573rd M · 46th M50 |
| 841 | 8:12:47h | 6.09 | — | 574th M | |
| 842 | Coffs Trail Runners | 8:12:48h | 6.09 | W45 | 268th F · 32nd W45 |
| 842 | 8:12:48h | 6.09 | — | 268th F | |
| 844 | Running Mums Australia | 8:13:17h | 6.08 | — | 270th F |
| 845 | 8:13:44h | 6.08 | M23 | 575th M · 85th M23 | |
| 846 | Moore Performance | 8:14:09h | 6.07 | — | 576th M |
| 847 | 8:14:11h | 6.07 | M35 | 577th M · 68th M35 | |
| 848 | 8:14:19h | 6.07 | W23 | 271st F · 45th W23 | |
| 849 | 8:14:20h | 6.07 | — | 272nd F | |
| 850 | Lalor Running Club | 8:14:23h | 6.07 | — | 273rd F |
- 801556th MTime8:07:22hPace6.16
- 802557th M · 88th M40Time8:07:35hPace6.15Cat.M40
- 803UP Coaching246th F · 50th W40Time8:07:57hPace6.15Cat.W40
- 804Vipers Run Club558th MTime8:08:08hPace6.15
- 805559th M · 89th M40Time8:08:27hPace6.14Cat.M40
- 806Watagan Warriors247th F · 51st W40Time8:08:28hPace6.14Cat.W40
- 807Savvy560th M · 1st M65Time8:08:50hPace6.14Cat.M65
- 808248th F · 37th W35Time8:08:55hPace6.14Cat.W35
- 809UP Coaching561st MTime8:08:57hPace6.14
- 810249th F · 17th W50Time8:09:04hPace6.13Cat.W50
- 811Beauty of Exercise (Bexi)250th FTime8:09:16hPace6.13
- 812Brisbane Trail Runners251st F · 38th W35Time8:09:24hPace6.13Cat.W35
- 813252nd F · 42nd W23Time8:09:31hPace6.13Cat.W23
- 814Squadrun562nd M · 90th M40Time8:09:32hPace6.13Cat.M40
- 815Berowra Bush Runners253rd F · 3rd W55Time8:09:33hPace6.13Cat.W55
- 816TRT Running254th FTime8:09:41hPace6.13
- 817Elevate Running and Fi...255th FTime8:09:50hPace6.13
- 818Karimbah Trail Runners563rd M · 43rd M50Time8:09:52hPace6.12Cat.M50
- 819Buttrunner564th M · 44th M50Time8:09:56hPace6.12Cat.M50
- 820565th M · 67th M35Time8:10:04hPace6.12Cat.M35
- 821256th F · 6th WU23Time8:10:13hPace6.12Cat.WU23
- 822Rachel’S Runners257th F · 39th W35Time8:10:15hPace6.12Cat.W35
- 823UP Coaching - Blue Mou...258th F · 30th W45Time8:10:37hPace6.12Cat.W45
- 823RED Lightning Racing Team566th MTime8:10:37hPace6.12
- 825Melbourne Inner North ...259th F · 31st W45Time8:11:00hPace6.11Cat.W45
- 826RMA260th FTime8:11:13hPace6.11
- 827Running Mums Australia261st F · 52nd W40Time8:11:14hPace6.11Cat.W40
- 828Squadrun262nd F · 43rd W23Time8:11:21hPace6.11Cat.W23
- 829Five30Runners567th M · 74th M45Time8:11:29hPace6.10Cat.M45
- 830St George568th M · 9th M60Time8:11:42hPace6.10Cat.M60
- 831569th M · 75th M45Time8:11:47hPace6.10Cat.M45
- 832263rd FTime8:11:54hPace6.10
- 832570th M · 76th M45Time8:11:54hPace6.10Cat.M45
- 834264th F · 44th W23Time8:11:55hPace6.10Cat.W23
- 835Running Mums Australia265th FTime8:11:58hPace6.10
- 836Terrigal Trotters266th FTime8:12:06hPace6.10
- 837UP Coaching571st M · 45th M50Time8:12:21hPace6.09Cat.M50
- 837UP Coaching571st M · 77th M45Time8:12:21hPace6.09Cat.M45
- 839267th F · 40th W35Time8:12:32hPace6.09Cat.W35
- 839Cadence Run Group573rd M · 46th M50Time8:12:32hPace6.09Cat.M50
- 841574th MTime8:12:47hPace6.09
- 842Coffs Trail Runners268th F · 32nd W45Time8:12:48hPace6.09Cat.W45
- 842268th FTime8:12:48hPace6.09
- 844Running Mums Australia270th FTime8:13:17hPace6.08
- 845575th M · 85th M23Time8:13:44hPace6.08Cat.M23
- 846Moore Performance576th MTime8:14:09hPace6.07
- 847577th M · 68th M35Time8:14:11hPace6.07Cat.M35
- 848271st F · 45th W23Time8:14:19hPace6.07Cat.W23
- 849272nd FTime8:14:20hPace6.07
- 850Lalor Running Club273rd FTime8:14:23hPace6.07
Showing ranks 801–850 of 1,830